createdAt,value
2023-05-05T00:00:54.207Z,961.67
2023-05-05T00:01:54.287Z,961.67
2023-05-05T00:02:54.288Z,961.65
2023-05-05T00:03:54.215Z,961.63
2023-05-05T00:04:57.192Z,961.64
2023-05-05T00:05:54.186Z,961.64
2023-05-05T00:06:54.165Z,961.60
2023-05-05T00:07:54.142Z,961.63
2023-05-05T00:08:54.124Z,961.61
2023-05-05T00:09:54.173Z,961.56
2023-05-05T00:10:54.111Z,961.54
2023-05-05T00:11:54.128Z,961.56
2023-05-05T00:12:54.137Z,961.56
2023-05-05T00:13:54.071Z,961.51
2023-05-05T00:14:54.057Z,961.60
2023-05-05T00:15:54.068Z,961.57
2023-05-05T00:16:54.050Z,961.53
2023-05-05T00:17:54.077Z,961.56
2023-05-05T00:18:54.017Z,961.53
2023-05-05T00:19:56.994Z,961.53
2023-05-05T00:20:54.000Z,961.52
2023-05-05T00:21:54.011Z,961.55
2023-05-05T00:22:54.026Z,961.56
2023-05-05T00:23:53.988Z,961.55
2023-05-05T00:24:54.169Z,961.56
2023-05-05T00:25:55.020Z,961.54
2023-05-05T00:26:54.153Z,961.56
2023-05-05T00:27:54.892Z,961.52
2023-05-05T00:28:54.141Z,961.53
2023-05-05T00:29:54.900Z,961.52
2023-05-05T00:30:54.088Z,961.49
2023-05-05T00:31:53.906Z,961.46
2023-05-05T00:32:53.925Z,961.46
2023-05-05T00:33:53.859Z,961.49
2023-05-05T00:34:56.844Z,961.48
2023-05-05T00:35:53.848Z,961.47
2023-05-05T00:36:53.868Z,961.49
2023-05-05T00:37:53.842Z,961.47
2023-05-05T00:38:53.804Z,961.50
2023-05-05T00:39:53.837Z,961.48
2023-05-05T00:40:53.788Z,961.46
2023-05-05T00:41:53.813Z,961.46
2023-05-05T00:42:53.772Z,961.48
2023-05-05T00:43:53.768Z,961.45
2023-05-05T00:44:53.750Z,961.46
2023-05-05T00:45:53.766Z,961.47
2023-05-05T00:46:53.728Z,961.44
2023-05-05T00:47:53.752Z,961.46
2023-05-05T00:48:53.803Z,961.48
2023-05-05T00:49:56.694Z,961.44
2023-05-05T00:50:53.711Z,961.48
2023-05-05T00:51:53.704Z,961.49
2023-05-05T00:52:53.678Z,961.49
2023-05-05T00:53:53.674Z,961.47
2023-05-05T00:54:53.661Z,961.47
2023-05-05T00:55:53.646Z,961.50
2023-05-05T00:56:53.626Z,961.53
2023-05-05T00:57:53.607Z,961.51
2023-05-05T00:58:53.678Z,961.54
2023-05-05T00:59:53.609Z,961.50
2023-05-05T01:00:53.582Z,961.56
2023-05-05T01:01:53.607Z,961.53
2023-05-05T01:02:53.676Z,961.54
2023-05-05T01:03:53.705Z,961.54
2023-05-05T01:04:56.557Z,961.52
2023-05-05T01:05:53.554Z,961.51
2023-05-05T01:07:53.501Z,961.49
2023-05-05T01:08:53.489Z,961.54
2023-05-05T01:10:01.009Z,961.54
2023-05-05T01:10:54.477Z,961.55
2023-05-05T01:11:53.483Z,961.50
2023-05-05T01:12:53.468Z,961.51
2023-05-05T01:13:53.436Z,961.51
2023-05-05T01:14:53.534Z,961.44
2023-05-05T01:15:53.552Z,961.45
2023-05-05T01:16:53.431Z,961.43
2023-05-05T01:17:53.415Z,961.46
2023-05-05T01:18:53.399Z,961.43
2023-05-05T01:19:56.416Z,961.49
2023-05-05T01:20:53.356Z,961.43
2023-05-05T01:21:53.351Z,961.45
2023-05-05T01:22:53.397Z,961.41
2023-05-05T01:23:53.331Z,961.43
2023-05-05T01:24:53.317Z,961.43
2023-05-05T01:25:53.311Z,961.45
2023-05-05T01:26:53.293Z,961.42
2023-05-05T01:27:53.294Z,961.44
2023-05-05T01:28:53.302Z,961.46
2023-05-05T01:29:53.350Z,961.49
2023-05-05T01:30:53.278Z,961.47
2023-05-05T01:31:53.333Z,961.49
2023-05-05T01:32:53.276Z,961.45
2023-05-05T01:33:53.243Z,961.53
2023-05-05T01:34:56.247Z,961.48
2023-05-05T01:35:53.206Z,961.55
2023-05-05T01:36:53.190Z,961.57
2023-05-05T01:37:53.170Z,961.46
2023-05-05T01:38:53.196Z,961.44
2023-05-05T01:39:53.140Z,961.52
2023-05-05T01:40:53.145Z,961.51
2023-05-05T01:41:53.163Z,961.49
2023-05-05T01:42:53.127Z,961.49
2023-05-05T01:43:53.141Z,961.52
2023-05-05T01:45:53.165Z,961.57
2023-05-05T01:46:53.070Z,961.53
2023-05-05T01:47:53.137Z,961.53
2023-05-05T01:48:53.060Z,961.55
2023-05-05T01:49:56.070Z,961.53
2023-05-05T01:50:53.091Z,961.54
2023-05-05T01:51:53.047Z,961.52
2023-05-05T01:52:53.047Z,961.53
2023-05-05T01:53:53.025Z,961.54
2023-05-05T01:54:53.007Z,961.58
2023-05-05T01:55:52.977Z,961.59
2023-05-05T01:56:52.962Z,961.62
2023-05-05T01:57:52.975Z,961.56
2023-05-05T01:58:52.966Z,961.60
2023-05-05T01:59:52.955Z,961.60
2023-05-05T02:00:52.919Z,961.64
2023-05-05T02:01:52.952Z,961.61
2023-05-05T02:02:52.961Z,961.63
2023-05-05T02:03:52.883Z,961.65
2023-05-05T02:04:55.934Z,961.65
2023-05-05T02:05:52.899Z,961.62
2023-05-05T02:06:52.855Z,961.64
2023-05-05T02:07:52.845Z,961.59
2023-05-05T02:08:52.831Z,961.60
2023-05-05T02:10:52.835Z,961.61
2023-05-05T02:11:52.817Z,961.60
2023-05-05T02:12:53.036Z,961.60
2023-05-05T02:13:52.833Z,961.58
2023-05-05T02:14:52.765Z,961.54
2023-05-05T02:15:52.804Z,961.52
2023-05-05T02:16:52.773Z,961.53
2023-05-05T02:17:52.781Z,961.57
2023-05-05T02:18:52.725Z,961.51
2023-05-05T02:19:55.751Z,961.51
2023-05-05T02:20:52.718Z,961.49
2023-05-05T02:21:52.721Z,961.54
2023-05-05T02:22:52.709Z,961.51
2023-05-05T02:23:52.703Z,961.50
2023-05-05T02:24:52.661Z,961.49
2023-05-05T02:25:52.660Z,961.49
2023-05-05T02:26:52.640Z,961.52
2023-05-05T02:27:52.668Z,961.50
2023-05-05T02:28:52.626Z,961.50
2023-05-05T02:29:52.623Z,961.48
2023-05-05T02:30:52.596Z,961.49
2023-05-05T02:31:52.709Z,961.48
2023-05-05T02:32:52.636Z,961.52
2023-05-05T02:33:52.594Z,961.52
2023-05-05T02:34:55.704Z,961.50
2023-05-05T02:35:52.573Z,961.48
2023-05-05T02:36:52.567Z,961.50
2023-05-05T02:37:52.593Z,961.48
2023-05-05T02:38:52.508Z,961.50
2023-05-05T02:39:52.499Z,961.46
2023-05-05T02:40:52.497Z,961.48
2023-05-05T02:41:52.514Z,961.50
2023-05-05T02:42:52.491Z,961.50
2023-05-05T02:43:52.463Z,961.48
2023-05-05T02:44:52.439Z,961.44
2023-05-05T02:45:52.494Z,961.44
2023-05-05T02:46:52.465Z,961.42
2023-05-05T02:47:52.476Z,961.42
2023-05-05T02:48:52.403Z,961.44
2023-05-05T02:49:55.423Z,961.42
2023-05-05T02:50:52.411Z,961.42
2023-05-05T02:51:52.375Z,961.44
2023-05-05T02:52:52.368Z,961.43
2023-05-05T02:53:52.374Z,961.44
2023-05-05T02:54:52.365Z,961.43
2023-05-05T02:55:52.327Z,961.40
2023-05-05T02:56:52.364Z,961.41
2023-05-05T02:57:52.294Z,961.44
2023-05-05T02:58:52.329Z,961.41
2023-05-05T02:59:52.309Z,961.42
2023-05-05T03:00:52.279Z,961.43
2023-05-05T03:01:52.352Z,961.43
2023-05-05T03:02:52.303Z,961.42
2023-05-05T03:03:52.383Z,961.40
2023-05-05T03:04:55.218Z,961.42
2023-05-05T03:05:52.220Z,961.41
2023-05-05T03:06:52.206Z,961.36
2023-05-05T03:07:52.227Z,961.41
2023-05-05T03:08:52.223Z,961.38
2023-05-05T03:09:52.202Z,961.41
2023-05-05T03:10:52.167Z,961.38
2023-05-05T03:11:52.199Z,961.38
2023-05-05T03:12:52.220Z,961.40
2023-05-05T03:13:52.126Z,961.39
2023-05-05T03:14:52.115Z,961.33
2023-05-05T03:15:52.115Z,961.33
2023-05-05T03:16:52.091Z,961.34
2023-05-05T03:17:52.143Z,961.33
2023-05-05T03:18:52.143Z,961.34
2023-05-05T03:19:55.084Z,961.34
2023-05-05T03:20:52.061Z,961.36
2023-05-05T03:21:52.041Z,961.34
2023-05-05T03:22:52.065Z,961.35
2023-05-05T03:23:52.025Z,961.36
2023-05-05T03:24:52.033Z,961.35
2023-05-05T03:25:52.030Z,961.37
2023-05-05T03:26:51.993Z,961.37
2023-05-05T03:27:52.003Z,961.37
2023-05-05T03:28:52.008Z,961.34
2023-05-05T03:29:52.022Z,961.36
2023-05-05T03:30:51.921Z,961.33
2023-05-05T03:31:51.974Z,961.34
2023-05-05T03:32:52.022Z,961.35
2023-05-05T03:33:51.950Z,961.36
2023-05-05T03:34:54.915Z,961.37
2023-05-05T03:35:51.884Z,961.37
2023-05-05T03:36:51.863Z,961.35
2023-05-05T03:37:51.851Z,961.37
2023-05-05T03:38:51.832Z,961.35
2023-05-05T03:39:51.829Z,961.32
2023-05-05T03:40:51.785Z,961.36
2023-05-05T03:41:51.785Z,961.36
2023-05-05T03:42:51.781Z,961.36
2023-05-05T03:43:51.793Z,961.41
2023-05-05T03:44:51.745Z,961.40
2023-05-05T03:45:51.821Z,961.42
2023-05-05T03:46:51.895Z,961.41
2023-05-05T03:47:51.724Z,961.44
2023-05-05T03:48:51.774Z,961.42
2023-05-05T03:49:54.688Z,961.40
2023-05-05T03:50:51.694Z,961.42
2023-05-05T03:51:51.696Z,961.45
2023-05-05T03:52:51.684Z,961.39
2023-05-05T03:53:51.692Z,961.39
2023-05-05T03:54:51.686Z,961.35
2023-05-05T03:55:51.653Z,961.37
2023-05-05T03:56:51.617Z,961.39
2023-05-05T03:57:51.643Z,961.32
2023-05-05T03:58:51.588Z,961.39
2023-05-05T03:59:51.613Z,961.38
2023-05-05T04:00:51.628Z,961.36
2023-05-05T04:01:51.602Z,961.35
2023-05-05T04:02:51.647Z,961.34
2023-05-05T04:03:51.606Z,961.37
2023-05-05T04:04:54.605Z,961.37
2023-05-05T04:05:51.534Z,961.38
2023-05-05T04:06:51.698Z,961.33
2023-05-05T04:07:51.532Z,961.35
2023-05-05T04:08:51.578Z,961.36
2023-05-05T04:09:51.509Z,961.35
2023-05-05T04:10:51.468Z,961.35
2023-05-05T04:11:51.456Z,961.34
2023-05-05T04:12:51.551Z,961.34
2023-05-05T04:13:51.448Z,961.37
2023-05-05T04:14:51.435Z,961.33
2023-05-05T04:15:51.490Z,961.36
2023-05-05T04:16:51.417Z,961.37
2023-05-05T04:17:51.455Z,961.39
2023-05-05T04:18:51.439Z,961.42
2023-05-05T04:19:54.456Z,961.43
2023-05-05T04:20:51.410Z,961.43
2023-05-05T04:21:51.388Z,961.43
2023-05-05T04:22:52.721Z,961.43
2023-05-05T04:23:51.378Z,961.44
2023-05-05T04:24:51.360Z,961.49
2023-05-05T04:25:51.392Z,961.52
2023-05-05T04:26:51.338Z,961.47
2023-05-05T04:27:51.328Z,961.53
2023-05-05T04:28:51.316Z,961.52
2023-05-05T04:29:51.309Z,961.54
2023-05-05T04:30:51.390Z,961.53
2023-05-05T04:31:51.334Z,961.54
2023-05-05T04:32:51.275Z,961.54
2023-05-05T04:33:51.254Z,961.60
2023-05-05T04:34:54.226Z,961.55
2023-05-05T04:35:51.230Z,961.60
2023-05-05T04:36:51.228Z,961.56
2023-05-05T04:37:51.219Z,961.57
2023-05-05T04:38:51.252Z,961.61
2023-05-05T04:39:51.193Z,961.65
2023-05-05T04:40:51.158Z,961.63
2023-05-05T04:41:51.154Z,961.58
2023-05-05T04:42:51.158Z,961.61
2023-05-05T04:43:51.136Z,961.61
2023-05-05T04:44:51.147Z,961.63
2023-05-05T04:45:51.134Z,961.60
2023-05-05T04:46:51.142Z,961.56
2023-05-05T04:47:51.162Z,961.60
2023-05-05T04:48:51.150Z,961.60
2023-05-05T04:49:54.100Z,961.61
2023-05-05T04:50:51.090Z,961.62
2023-05-05T04:51:51.075Z,961.63
2023-05-05T04:52:52.670Z,961.65
2023-05-05T04:53:51.024Z,961.70
2023-05-05T04:54:51.060Z,961.65
2023-05-05T04:55:51.036Z,961.70
2023-05-05T04:56:50.991Z,961.74
2023-05-05T04:57:51.070Z,961.67
2023-05-05T04:58:50.998Z,961.72
2023-05-05T04:59:51.035Z,961.73
2023-05-05T05:01:50.985Z,961.72
2023-05-05T05:02:51.009Z,961.74
2023-05-05T05:03:51.043Z,961.74
2023-05-05T05:04:53.913Z,961.73
2023-05-05T05:05:50.937Z,961.66
2023-05-05T05:06:50.897Z,961.70
2023-05-05T05:07:50.906Z,961.72
2023-05-05T05:08:50.906Z,961.69
2023-05-05T05:09:50.882Z,961.72
2023-05-05T05:10:50.842Z,961.71
2023-05-05T05:11:50.831Z,961.68
2023-05-05T05:12:50.915Z,961.69
2023-05-05T05:13:50.814Z,961.70
2023-05-05T05:14:50.801Z,961.73
2023-05-05T05:15:50.843Z,961.72
2023-05-05T05:16:50.840Z,961.72
2023-05-05T05:17:50.814Z,961.71
2023-05-05T05:18:50.753Z,961.71
2023-05-05T05:19:53.752Z,961.70
2023-05-05T05:20:51.006Z,961.72
2023-05-05T05:21:50.865Z,961.76
2023-05-05T05:22:50.716Z,961.73
2023-05-05T05:23:50.703Z,961.73
2023-05-05T05:24:50.695Z,961.71
2023-05-05T05:25:50.725Z,961.71
2023-05-05T05:26:50.702Z,961.69
2023-05-05T05:28:05.782Z,961.66
2023-05-05T05:28:51.702Z,961.69
2023-05-05T05:29:50.635Z,961.72
2023-05-05T05:30:50.639Z,961.70
2023-05-05T05:31:50.670Z,961.76
2023-05-05T05:32:50.758Z,961.75
2023-05-05T05:33:50.604Z,961.77
2023-05-05T05:34:53.608Z,961.77
2023-05-05T05:35:50.612Z,961.78
2023-05-05T05:36:50.594Z,961.78
2023-05-05T05:37:50.559Z,961.79
2023-05-05T05:38:50.692Z,961.81
2023-05-05T05:39:50.533Z,961.79
2023-05-05T05:40:50.517Z,961.78
2023-05-05T05:41:50.522Z,961.80
2023-05-05T05:42:50.550Z,961.82
2023-05-05T05:43:50.503Z,961.80
2023-05-05T05:44:50.528Z,961.86
2023-05-05T05:46:50.481Z,961.87
2023-05-05T05:47:50.523Z,961.92
2023-05-05T05:48:50.468Z,961.92
2023-05-05T05:49:53.447Z,961.87
2023-05-05T05:51:50.432Z,961.91
2023-05-05T05:52:50.420Z,961.89
2023-05-05T05:53:50.378Z,961.93
2023-05-05T05:54:50.377Z,961.91
2023-05-05T05:55:50.388Z,961.88
2023-05-05T05:56:50.392Z,961.89
2023-05-05T05:57:50.351Z,961.91
2023-05-05T05:59:50.387Z,961.91
2023-05-05T06:00:50.299Z,961.95
2023-05-05T06:01:50.293Z,961.94
2023-05-05T06:02:50.328Z,961.96
2023-05-05T06:03:50.360Z,961.93
2023-05-05T06:04:53.256Z,961.98
2023-05-05T06:05:50.285Z,961.98
2023-05-05T06:06:50.250Z,962.02
2023-05-05T06:07:50.243Z,962.00
2023-05-05T06:08:50.280Z,962.01
2023-05-05T06:09:50.230Z,962.00
2023-05-05T06:10:50.227Z,961.98
2023-05-05T06:11:50.185Z,961.99
2023-05-05T06:12:50.219Z,961.98
2023-05-05T06:13:50.192Z,961.96
2023-05-05T06:14:50.166Z,961.97
2023-05-05T06:16:50.121Z,961.99
2023-05-05T06:17:50.169Z,962.00
2023-05-05T06:18:50.109Z,961.99
2023-05-05T06:19:54.534Z,961.97
2023-05-05T06:20:50.115Z,961.98
2023-05-05T06:22:50.066Z,961.97
2023-05-05T06:24:50.070Z,961.97
2023-05-05T06:25:50.081Z,962.00
2023-05-05T06:26:50.020Z,961.97
2023-05-05T06:27:50.022Z,961.98
2023-05-05T06:28:50.025Z,961.95
2023-05-05T06:29:50.046Z,961.96
2023-05-05T06:30:49.979Z,961.97
2023-05-05T06:31:50.084Z,961.98
2023-05-05T06:32:50.012Z,961.96
2023-05-05T06:33:49.948Z,961.95
2023-05-05T06:34:52.941Z,961.94
2023-05-05T06:35:49.933Z,961.91
2023-05-05T06:36:50.192Z,961.88
2023-05-05T06:37:49.931Z,961.90
2023-05-05T06:38:49.932Z,961.91
2023-05-05T06:39:49.915Z,961.90
2023-05-05T06:40:49.876Z,961.92
2023-05-05T06:42:49.889Z,961.90
2023-05-05T06:44:49.831Z,961.90
2023-05-05T06:45:49.853Z,961.92
2023-05-05T06:47:49.894Z,961.89
2023-05-05T06:49:52.803Z,961.85
2023-05-05T06:50:49.794Z,961.90
2023-05-05T06:51:49.779Z,961.88
2023-05-05T06:52:49.751Z,961.94
2023-05-05T06:53:49.764Z,961.93
2023-05-05T06:54:49.716Z,961.93
2023-05-05T06:55:49.728Z,961.95
2023-05-05T06:56:49.733Z,961.94
2023-05-05T06:57:49.693Z,962.00
2023-05-05T06:58:49.708Z,961.95
2023-05-05T06:59:49.672Z,961.89
2023-05-05T07:00:49.709Z,961.91
2023-05-05T07:02:49.726Z,961.93
2023-05-05T07:03:49.678Z,961.87
2023-05-05T07:05:49.652Z,961.90
2023-05-05T07:06:49.633Z,961.87
2023-05-05T07:07:49.594Z,961.92
2023-05-05T07:08:49.625Z,961.92
2023-05-05T07:09:49.561Z,961.95
2023-05-05T07:10:49.548Z,961.87
2023-05-05T07:11:49.770Z,961.87
2023-05-05T07:12:49.623Z,961.87
2023-05-05T07:13:49.590Z,961.89
2023-05-05T07:15:49.501Z,961.96
2023-05-05T07:16:49.611Z,961.94
2023-05-05T07:18:49.468Z,961.94
2023-05-05T07:20:49.541Z,961.96
2023-05-05T07:22:49.424Z,961.94
2023-05-05T07:23:49.412Z,961.94
2023-05-05T07:25:49.424Z,961.90
2023-05-05T07:26:49.383Z,961.97
2023-05-05T07:27:49.465Z,961.95
2023-05-05T07:28:49.403Z,961.92
2023-05-05T07:29:49.341Z,961.90
2023-05-05T07:30:49.394Z,961.84
2023-05-05T07:31:49.388Z,961.81
2023-05-05T07:33:49.351Z,961.83
2023-05-05T07:35:49.290Z,961.80
2023-05-05T07:36:49.303Z,961.79
2023-05-05T07:38:49.287Z,961.78
2023-05-05T07:39:49.245Z,961.80
2023-05-05T07:40:49.264Z,961.78
2023-05-05T07:41:49.272Z,961.80
2023-05-05T07:42:49.234Z,961.79
2023-05-05T07:43:49.199Z,961.82
2023-05-05T07:45:49.256Z,961.71
2023-05-05T07:46:49.280Z,961.73
2023-05-05T07:47:49.214Z,961.71
2023-05-05T07:48:49.154Z,961.72
2023-05-05T07:49:52.149Z,961.72
2023-05-05T07:51:49.136Z,961.74
2023-05-05T07:52:53.956Z,961.72
2023-05-05T07:53:50.100Z,961.68
2023-05-05T07:54:49.086Z,961.66
2023-05-05T07:56:49.103Z,961.65
2023-05-05T07:57:49.219Z,961.70
2023-05-05T07:58:49.047Z,961.69
2023-05-05T07:59:49.033Z,961.68
2023-05-05T08:01:49.040Z,961.67
2023-05-05T08:03:49.075Z,961.65
2023-05-05T08:04:52.002Z,961.70
2023-05-05T08:05:51.235Z,961.67
2023-05-05T08:06:48.954Z,961.66
2023-05-05T08:07:48.980Z,961.64
2023-05-05T08:08:48.946Z,961.63
2023-05-05T08:09:48.924Z,961.65
2023-05-05T08:10:48.945Z,961.66
2023-05-05T08:11:48.948Z,961.64
2023-05-05T08:12:48.955Z,961.62
2023-05-05T08:13:48.977Z,961.61
2023-05-05T08:14:48.883Z,961.62
2023-05-05T08:15:48.923Z,961.62
2023-05-05T08:16:48.884Z,961.62
2023-05-05T08:18:48.849Z,961.60
2023-05-05T08:19:51.855Z,961.58
2023-05-05T08:20:48.853Z,961.58
2023-05-05T08:21:48.799Z,961.57
2023-05-05T08:22:48.826Z,961.53
2023-05-05T08:23:48.808Z,961.58
2023-05-05T08:24:48.806Z,961.58
2023-05-05T08:26:48.765Z,961.48
2023-05-05T08:27:48.782Z,961.47
2023-05-05T08:28:48.774Z,961.47
2023-05-05T08:30:48.711Z,961.46
2023-05-05T08:31:48.783Z,961.43
2023-05-05T08:32:48.758Z,961.47
2023-05-05T08:33:48.716Z,961.49
2023-05-05T08:34:51.672Z,961.44
2023-05-05T08:36:48.676Z,961.42
2023-05-05T08:37:48.641Z,961.43
2023-05-05T08:38:48.756Z,961.39
2023-05-05T08:39:48.663Z,961.39
2023-05-05T08:40:48.616Z,961.37
2023-05-05T08:41:48.596Z,961.43
2023-05-05T08:42:48.622Z,961.39
2023-05-05T08:44:48.565Z,961.38
2023-05-05T08:45:48.549Z,961.36
2023-05-05T08:46:48.659Z,961.35
2023-05-05T08:47:48.595Z,961.35
2023-05-05T08:48:48.651Z,961.35
2023-05-05T08:49:51.508Z,961.33
2023-05-05T08:51:48.496Z,961.34
2023-05-05T08:52:50.655Z,961.35
2023-05-05T08:53:48.474Z,961.33
2023-05-05T08:54:48.501Z,961.35
2023-05-05T08:56:48.466Z,961.35
2023-05-05T08:57:48.468Z,961.26
2023-05-05T08:59:48.407Z,961.26
2023-05-05T09:00:48.486Z,961.25
2023-05-05T09:02:48.472Z,961.30
2023-05-05T09:04:51.415Z,961.31
2023-05-05T09:05:48.339Z,961.28
2023-05-05T09:06:48.335Z,961.29
2023-05-05T09:07:48.344Z,961.31
2023-05-05T09:08:48.302Z,961.29
2023-05-05T09:09:48.282Z,961.28
2023-05-05T09:10:48.307Z,961.29
2023-05-05T09:12:48.339Z,961.28
2023-05-05T09:13:48.273Z,961.27
2023-05-05T09:14:48.271Z,961.27
2023-05-05T09:16:48.340Z,961.28
2023-05-05T09:17:48.384Z,961.28
2023-05-05T09:18:48.195Z,961.25
2023-05-05T09:19:51.215Z,961.26
2023-05-05T09:20:48.270Z,961.24
2023-05-05T09:21:48.196Z,961.24
2023-05-05T09:22:48.183Z,961.24
2023-05-05T09:23:48.156Z,961.23
2023-05-05T09:24:48.129Z,961.21
2023-05-05T09:25:48.132Z,961.25
2023-05-05T09:26:48.155Z,961.20
2023-05-05T09:27:48.148Z,961.17
2023-05-05T09:29:48.106Z,961.17
2023-05-05T09:30:48.102Z,961.15
2023-05-05T09:32:48.144Z,961.13
2023-05-05T09:33:48.066Z,961.11
2023-05-05T09:34:51.054Z,961.09
2023-05-05T09:35:48.056Z,961.10
2023-05-05T09:36:48.084Z,961.07
2023-05-05T09:37:48.086Z,961.05
2023-05-05T09:39:47.970Z,961.02
2023-05-05T09:40:47.989Z,961.03
2023-05-05T09:41:48.002Z,961.02
2023-05-05T09:42:47.949Z,961.02
2023-05-05T09:43:47.966Z,961.02
2023-05-05T09:44:47.950Z,960.99
2023-05-05T09:45:47.938Z,960.97
2023-05-05T09:46:48.040Z,960.95
2023-05-05T09:47:48.076Z,960.92
2023-05-05T09:48:49.028Z,960.95
2023-05-05T09:49:51.151Z,960.89
2023-05-05T09:50:47.917Z,960.95
2023-05-05T09:51:47.857Z,960.88
2023-05-05T09:52:48.156Z,960.89
2023-05-05T09:53:47.853Z,960.91
2023-05-05T09:54:47.902Z,960.87
2023-05-05T09:55:47.867Z,960.83
2023-05-05T09:57:47.778Z,960.80
2023-05-05T09:58:47.807Z,960.80
2023-05-05T09:59:47.754Z,960.80
2023-05-05T10:00:47.880Z,960.75
2023-05-05T10:02:47.778Z,960.75
2023-05-05T10:03:47.740Z,960.74
2023-05-05T10:04:50.815Z,960.76
2023-05-05T10:05:47.730Z,960.73
2023-05-05T10:06:47.760Z,960.71
2023-05-05T10:08:47.666Z,960.69
2023-05-05T10:09:47.683Z,960.68
2023-05-05T10:10:47.670Z,960.68
2023-05-05T10:11:47.666Z,960.68
2023-05-05T10:12:47.705Z,960.65
2023-05-05T10:13:47.631Z,960.64
2023-05-05T10:15:47.622Z,960.63
2023-05-05T10:16:47.722Z,960.60
2023-05-05T10:17:57.938Z,960.56
2023-05-05T10:18:47.558Z,960.58
2023-05-05T10:19:50.596Z,960.54
2023-05-05T10:20:47.581Z,960.53
2023-05-05T10:21:47.560Z,960.53
2023-05-05T10:22:47.535Z,960.49
2023-05-05T10:23:47.546Z,960.50
2023-05-05T10:24:47.496Z,960.47
2023-05-05T10:25:47.507Z,960.47
2023-05-05T10:26:47.480Z,960.44
2023-05-05T10:27:47.460Z,960.43
2023-05-05T10:28:47.495Z,960.46
2023-05-05T10:29:47.474Z,960.47
2023-05-05T10:30:47.446Z,960.46
2023-05-05T10:31:47.486Z,960.43
2023-05-05T10:33:48.562Z,960.44
2023-05-05T10:34:50.420Z,960.45
2023-05-05T10:35:47.390Z,960.44
2023-05-05T10:36:47.397Z,960.40
2023-05-05T10:37:47.357Z,960.40
2023-05-05T10:38:47.371Z,960.42
2023-05-05T10:39:47.336Z,960.41
2023-05-05T10:41:47.332Z,960.37
2023-05-05T10:42:47.338Z,960.33
2023-05-05T10:43:47.336Z,960.33
2023-05-05T10:44:47.333Z,960.29
2023-05-05T10:45:47.358Z,960.30
2023-05-05T10:46:47.269Z,960.26
2023-05-05T10:47:47.404Z,960.26
2023-05-05T10:48:47.331Z,960.26
2023-05-05T10:49:50.293Z,960.31
2023-05-05T10:51:47.206Z,960.26
2023-05-05T10:52:47.210Z,960.23
2023-05-05T10:53:47.207Z,960.20
2023-05-05T10:54:47.179Z,960.27
2023-05-05T10:55:47.199Z,960.24
2023-05-05T10:56:47.211Z,960.19
2023-05-05T10:57:47.166Z,960.21
2023-05-05T10:58:59.227Z,960.16
2023-05-05T10:59:47.119Z,960.16
2023-05-05T11:00:47.274Z,960.11
2023-05-05T11:01:47.097Z,960.09
2023-05-05T11:02:47.206Z,960.07
2023-05-05T11:03:47.157Z,960.09
2023-05-05T11:04:50.067Z,960.06
2023-05-05T11:06:47.074Z,960.03
2023-05-05T11:07:47.130Z,960.02
2023-05-05T11:08:47.067Z,960.01
2023-05-05T11:09:47.018Z,960.00
2023-05-05T11:11:47.048Z,959.97
2023-05-05T11:12:47.068Z,959.99
2023-05-05T11:13:46.988Z,959.92
2023-05-05T11:14:46.993Z,959.96
2023-05-05T11:16:47.004Z,959.90
2023-05-05T11:17:47.036Z,959.89
2023-05-05T11:19:49.911Z,959.89
2023-05-05T11:21:46.924Z,959.86
2023-05-05T11:22:47.030Z,959.88
2023-05-05T11:23:46.911Z,959.84
2023-05-05T11:24:46.880Z,959.84
2023-05-05T11:25:46.887Z,959.81
2023-05-05T11:26:46.856Z,959.79
2023-05-05T11:27:46.956Z,959.81
2023-05-05T11:28:46.823Z,959.80
2023-05-05T11:29:46.840Z,959.79
2023-05-05T11:30:46.853Z,959.79
2023-05-05T11:31:46.817Z,959.75
2023-05-05T11:33:46.771Z,959.73
2023-05-05T11:34:49.752Z,959.75
2023-05-05T11:36:46.731Z,959.71
2023-05-05T11:37:46.749Z,959.71
2023-05-05T11:38:46.751Z,959.70
2023-05-05T11:39:46.750Z,959.69
2023-05-05T11:40:46.762Z,959.71
2023-05-05T11:41:46.693Z,959.71
2023-05-05T11:42:46.702Z,959.63
2023-05-05T11:44:46.680Z,959.60
2023-05-05T11:45:46.639Z,959.57
2023-05-05T11:46:46.658Z,959.62
2023-05-05T11:47:46.857Z,959.58
2023-05-05T11:48:46.603Z,959.56
2023-05-05T11:49:49.633Z,959.57
2023-05-05T11:50:46.610Z,959.57
2023-05-05T11:51:46.627Z,959.60
2023-05-05T11:52:46.601Z,959.60
2023-05-05T11:54:46.548Z,959.59
2023-05-05T11:55:46.566Z,959.60
2023-05-05T11:56:46.515Z,959.55
2023-05-05T11:57:46.521Z,959.54
2023-05-05T11:59:49.031Z,959.53
2023-05-05T12:00:46.505Z,959.53
2023-05-05T12:01:46.509Z,959.52
2023-05-05T12:02:46.567Z,959.55
2023-05-05T12:03:46.633Z,959.53
2023-05-05T12:04:49.605Z,959.51
2023-05-05T12:05:46.469Z,959.54
2023-05-05T12:06:46.425Z,959.55
2023-05-05T12:07:46.430Z,959.54
2023-05-05T12:08:46.401Z,959.59
2023-05-05T12:09:46.398Z,959.51
2023-05-05T12:11:46.366Z,959.56
2023-05-05T12:12:46.402Z,959.56
2023-05-05T12:13:46.340Z,959.51
2023-05-05T12:14:46.367Z,959.56
2023-05-05T12:15:46.354Z,959.53
2023-05-05T12:17:46.419Z,959.52
2023-05-05T12:18:46.453Z,959.50
2023-05-05T12:19:49.298Z,959.55
2023-05-05T12:20:46.308Z,959.49
2023-05-05T12:21:46.266Z,959.49
2023-05-05T12:22:46.283Z,959.53
2023-05-05T12:23:46.844Z,959.52
2023-05-05T12:24:46.236Z,959.52
2023-05-05T12:25:46.225Z,959.48
2023-05-05T12:26:46.229Z,959.51
2023-05-05T12:27:46.231Z,959.45
2023-05-05T12:28:46.192Z,959.44
2023-05-05T12:29:46.184Z,959.43
2023-05-05T12:30:46.240Z,959.44
2023-05-05T12:31:46.186Z,959.41
2023-05-05T12:32:46.221Z,959.43
2023-05-05T12:33:46.175Z,959.41
2023-05-05T12:34:49.166Z,959.37
2023-05-05T12:35:46.118Z,959.43
2023-05-05T12:36:46.185Z,959.41
2023-05-05T12:37:46.167Z,959.36
2023-05-05T12:38:46.107Z,959.34
2023-05-05T12:40:46.073Z,959.33
2023-05-05T12:41:46.094Z,959.32
2023-05-05T12:42:46.470Z,959.32
2023-05-05T12:43:46.068Z,959.29
2023-05-05T12:44:46.044Z,959.26
2023-05-05T12:45:46.039Z,959.25
2023-05-05T12:46:46.054Z,959.25
2023-05-05T12:47:46.063Z,959.23
2023-05-05T12:48:48.286Z,959.24
2023-05-05T12:49:48.974Z,959.20
2023-05-05T12:50:45.969Z,959.16
2023-05-05T12:52:45.950Z,959.14
2023-05-05T12:53:46.009Z,959.12
2023-05-05T12:55:45.958Z,959.12
2023-05-05T12:56:46.026Z,959.09
2023-05-05T12:57:45.928Z,959.08
2023-05-05T12:58:45.917Z,959.07
2023-05-05T13:00:45.922Z,958.92
2023-05-05T13:01:45.859Z,958.93
2023-05-05T13:02:45.939Z,958.92
2023-05-05T13:03:45.851Z,958.84
2023-05-05T13:04:48.889Z,958.80
2023-05-05T13:05:45.853Z,958.81
2023-05-05T13:07:45.863Z,958.76
2023-05-05T13:09:45.801Z,958.71
2023-05-05T13:10:45.765Z,958.67
2023-05-05T13:11:45.758Z,958.69
2023-05-05T13:12:45.900Z,958.71
2023-05-05T13:13:45.721Z,958.70
2023-05-05T13:14:45.747Z,958.62
2023-05-05T13:15:45.776Z,958.63
2023-05-05T13:17:45.777Z,958.64
2023-05-05T13:18:45.676Z,958.59
2023-05-05T13:19:48.690Z,958.59
2023-05-05T13:20:45.703Z,958.60
2023-05-05T13:22:45.669Z,958.56
2023-05-05T13:23:45.695Z,958.52
2023-05-05T13:24:52.332Z,958.47
2023-05-05T13:25:45.639Z,958.48
2023-05-05T13:27:45.613Z,958.37
2023-05-05T13:28:45.599Z,958.34
2023-05-05T13:29:45.559Z,958.33
2023-05-05T13:30:45.570Z,958.29
2023-05-05T13:31:45.586Z,958.24
2023-05-05T13:32:45.624Z,958.22
2023-05-05T13:33:45.548Z,958.22
2023-05-05T13:34:48.543Z,958.16
2023-05-05T13:35:45.522Z,958.17
2023-05-05T13:36:45.485Z,958.16
2023-05-05T13:37:45.489Z,958.20
2023-05-05T13:38:45.461Z,958.21
2023-05-05T13:39:45.491Z,958.19
2023-05-05T13:40:45.471Z,958.24